Time;durP1;ratioP1;P1;durP2;ratioP2;P2;SDS_P1;SDS_P2;PMS_P1;PMS_P2;Temp;Humidity;BMP_temperature;BMP_pressure;BME280_temperature;BME280_humidity;BME280_pressure;Samples;Min_cycle;Max_cycle;Signal;HPM_P1;HPM_P2
2023/01/01 00:44:44;;;;;;;;;;;10.80;99.90;;;;;;4940597;23;19936;-71
2023/01/01 01:01:49;;;;;;;;;;;10.60;99.90;;;;;;4852236;29;20033;-70
2023/01/01 01:04:15;;;;;;;;;;;10.80;99.90;;;;;;4846338;29;19932;-72
2023/01/01 01:06:41;;;;;;;;;;;11.00;99.90;;;;;;4800110;29;20264;-71
2023/01/01 01:09:07;;;;;;;;;;;11.40;99.90;;;;;;4782439;29;19943;-71
2023/01/01 01:11:32;;;;;;;;;;;11.60;99.90;;;;;;4843414;29;19924;-71
2023/01/01 01:13:58;;;;;;;;;;;11.80;99.90;;;;;;4825596;29;19928;-71
2023/01/01 01:16:28;;;;;;;;;;;12.00;99.90;;;;;;4841121;29;19927;-71
2023/01/01 01:18:56;;;;;;;;;;;12.00;99.90;;;;;;4843167;29;19935;-71
2023/01/01 01:21:22;;;;;;;;;;;12.00;99.90;;;;;;4838833;29;19935;-70
2023/01/01 01:23:49;;;;;;;;;;;11.90;99.90;;;;;;4841287;29;19924;-70
2023/01/01 01:26:19;;;;;;;;;;;11.80;99.90;;;;;;4841179;29;19935;-70
2023/01/01 01:28:45;;;;;;;;;;;11.70;99.90;;;;;;4837952;29;19928;-70
2023/01/01 01:31:11;;;;;;;;;;;11.60;99.90;;;;;;4826962;29;19939;-70
2023/01/01 01:33:36;;;;;;;;;;;11.60;99.90;;;;;;4856794;29;19999;-70
2023/01/01 01:36:03;;;;;;;;;;;11.60;99.90;;;;;;4840389;29;19926;-70
2023/01/01 01:38:28;;;;;;;;;;;11.50;99.90;;;;;;4827746;29;19932;-70
2023/01/01 01:40:54;;;;;;;;;;;11.40;99.90;;;;;;4860311;29;20340;-70
2023/01/01 01:43:23;;;;;;;;;;;11.40;99.90;;;;;;4841471;29;20305;-71
2023/01/01 01:45:51;;;;;;;;;;;11.40;99.90;;;;;;4854070;29;19932;-71
2023/01/01 01:48:17;;;;;;;;;;;11.30;99.90;;;;;;4838408;29;19931;-70
2023/01/01 01:50:45;;;;;;;;;;;11.30;99.90;;;;;;4805331;29;19924;-70
2023/01/01 01:53:30;;;;;;;;;;;11.30;99.90;;;;;;4836656;29;19947;-70
2023/01/01 01:55:58;;;;;;;;;;;11.30;99.90;;;;;;4837683;29;19935;-71
2023/01/01 01:58:25;;;;;;;;;;;11.30;99.90;;;;;;4838511;29;19932;-70
2023/01/01 02:00:51;;;;;;;;;;;11.30;99.90;;;;;;4838382;29;20015;-71
2023/01/01 02:03:18;;;;;;;;;;;11.30;99.90;;;;;;4837657;29;20019;-71
2023/01/01 02:05:45;;;;;;;;;;;11.30;99.90;;;;;;4851262;29;20047;-70
2023/01/01 02:08:13;;;;;;;;;;;11.30;99.90;;;;;;4836831;29;20019;-70
2023/01/01 02:10:38;;;;;;;;;;;11.40;99.90;;;;;;4837284;29;19928;-70
2023/01/01 02:13:04;;;;;;;;;;;11.40;99.90;;;;;;4823281;29;20000;-70
2023/01/01 02:15:33;;;;;;;;;;;11.40;99.90;;;;;;4839274;29;19946;-70
2023/01/01 02:18:06;;;;;;;;;;;11.40;99.90;;;;;;4840873;29;19928;-70
2023/01/01 02:20:34;;;;;;;;;;;11.40;99.90;;;;;;4836966;29;20408;-70
2023/01/01 02:23:20;;;;;;;;;;;11.40;99.90;;;;;;4843718;29;20274;-70
2023/01/01 02:26:01;;;;;;;;;;;11.30;99.90;;;;;;4801810;29;20303;-70
2023/01/01 02:28:45;;;;;;;;;;;11.30;99.90;;;;;;4830370;29;19932;-70
2023/01/01 02:31:13;;;;;;;;;;;11.20;99.90;;;;;;4838321;29;19971;-70
2023/01/01 02:33:40;;;;;;;;;;;11.20;99.90;;;;;;4823523;29;19931;-71
2023/01/01 02:36:07;;;;;;;;;;;11.20;99.90;;;;;;4825936;29;19928;-70
2023/01/01 02:38:38;;;;;;;;;;;11.20;99.90;;;;;;4839200;29;20018;-70
2023/01/01 02:41:05;;;;;;;;;;;11.20;99.90;;;;;;4838810;29;19931;-70
2023/01/01 02:43:31;;;;;;;;;;;11.10;99.90;;;;;;4843205;29;19928;-70
2023/01/01 02:45:56;;;;;;;;;;;11.20;99.90;;;;;;4824486;29;19924;-70
2023/01/01 02:48:34;;;;;;;;;;;11.10;99.90;;;;;;4828577;29;19928;-70
2023/01/01 02:51:03;;;;;;;;;;;11.10;99.90;;;;;;4820598;29;19924;-70
2023/01/01 02:53:34;;;;;;;;;;;11.00;99.90;;;;;;4836686;29;19967;-70
2023/01/01 02:56:06;;;;;;;;;;;11.00;99.90;;;;;;4852068;29;19976;-70
2023/01/01 03:01:16;;;;;;;;;;;10.90;99.90;;;;;;4837640;29;19953;-71
2023/01/01 03:03:50;;;;;;;;;;;10.90;99.90;;;;;;4837931;29;20274;-70
2023/01/01 03:06:31;;;;;;;;;;;10.90;99.90;;;;;;4839498;29;19928;-70
2023/01/01 03:08:59;;;;;;;;;;;10.90;99.90;;;;;;4851277;29;19929;-70
2023/01/01 03:11:31;;;;;;;;;;;10.90;99.90;;;;;;4838977;29;20467;-70
2023/01/01 03:14:05;;;;;;;;;;;10.90;99.90;;;;;;4840373;29;19935;-70
2023/01/01 03:16:34;;;;;;;;;;;10.90;99.90;;;;;;4835147;29;20008;-70
2023/01/01 03:19:20;;;;;;;;;;;10.90;99.90;;;;;;4835480;29;19924;-70
2023/01/01 03:21:49;;;;;;;;;;;10.90;99.90;;;;;;4828939;29;19924;-70
2023/01/01 03:24:18;;;;;;;;;;;10.90;99.90;;;;;;4825590;29;19978;-71
2023/01/01 03:26:47;;;;;;;;;;;10.90;99.90;;;;;;4840511;29;20428;-70
2023/01/01 03:29:13;;;;;;;;;;;10.90;99.90;;;;;;4824149;29;19924;-71
2023/01/01 03:31:41;;;;;;;;;;;10.90;99.90;;;;;;4827314;29;20547;-71
2023/01/01 03:34:16;;;;;;;;;;;10.90;99.90;;;;;;4825616;29;20026;-70
2023/01/01 03:36:43;;;;;;;;;;;10.80;99.90;;;;;;4822413;29;19924;-70
2023/01/01 03:39:15;;;;;;;;;;;10.80;99.90;;;;;;4828602;29;19978;-70
2023/01/01 03:41:40;;;;;;;;;;;10.80;99.90;;;;;;4833510;29;19946;-70
2023/01/01 03:44:10;;;;;;;;;;;10.70;99.90;;;;;;4838960;29;19928;-70
2023/01/01 03:46:36;;;;;;;;;;;10.70;99.90;;;;;;4841526;29;20361;-70
2023/01/01 03:49:03;;;;;;;;;;;10.60;99.90;;;;;;4837375;29;20003;-70
2023/01/01 03:51:41;;;;;;;;;;;10.60;99.90;;;;;;4826918;29;19935;-70
2023/01/01 03:54:12;;;;;;;;;;;10.60;99.90;;;;;;4828233;29;19991;-70
2023/01/01 03:56:41;;;;;;;;;;;10.60;99.90;;;;;;4838040;29;19948;-70
2023/01/01 03:59:10;;;;;;;;;;;10.50;99.90;;;;;;4838909;29;20764;-70
2023/01/01 04:01:40;;;;;;;;;;;10.50;99.90;;;;;;4842768;29;19940;-70
2023/01/01 04:04:06;;;;;;;;;;;10.50;99.90;;;;;;4855239;29;20059;-70
2023/01/01 04:06:32;;;;;;;;;;;10.50;99.90;;;;;;4861736;29;19987;-70
2023/01/01 04:08:58;;;;;;;;;;;10.40;99.90;;;;;;4842271;29;19928;-70
2023/01/01 04:14:11;;;;;;;;;;;10.50;99.90;;;;;;4855661;29;20624;-70
2023/01/01 04:16:36;;;;;;;;;;;10.50;99.90;;;;;;4838281;29;19932;-70
2023/01/01 04:19:05;;;;;;;;;;;10.50;99.90;;;;;;4841839;29;19924;-70
2023/01/01 04:21:31;;;;;;;;;;;10.50;99.90;;;;;;4824926;29;19924;-70
2023/01/01 04:23:57;;;;;;;;;;;10.50;99.90;;;;;;4823412;29;19960;-70
2023/01/01 04:26:22;;;;;;;;;;;10.50;99.90;;;;;;4834885;29;19928;-70
2023/01/01 04:28:48;;;;;;;;;;;10.50;99.90;;;;;;4838640;29;20026;-71
2023/01/01 04:31:14;;;;;;;;;;;10.50;99.90;;;;;;4842983;29;20028;-70
2023/01/01 04:33:39;;;;;;;;;;;10.50;99.90;;;;;;4838865;29;19929;-70
2023/01/01 04:36:06;;;;;;;;;;;10.50;99.90;;;;;;4829795;29;19959;-70
2023/01/01 04:38:33;;;;;;;;;;;10.40;99.90;;;;;;4827508;29;19924;-70
2023/01/01 04:40:59;;;;;;;;;;;10.40;99.90;;;;;;4825860;29;20440;-70
2023/01/01 04:43:25;;;;;;;;;;;10.40;99.90;;;;;;4830941;29;19928;-70
2023/01/01 04:45:54;;;;;;;;;;;10.40;99.90;;;;;;4841372;29;19939;-70
2023/01/01 04:48:20;;;;;;;;;;;10.40;99.90;;;;;;4839453;29;20289;-71
2023/01/01 04:50:52;;;;;;;;;;;10.40;99.90;;;;;;4822407;29;19935;-70
2023/01/01 04:53:18;;;;;;;;;;;10.40;99.90;;;;;;4846567;29;19980;-70
2023/01/01 04:55:43;;;;;;;;;;;10.40;99.90;;;;;;4831574;29;19929;-70
2023/01/01 04:58:09;;;;;;;;;;;10.50;99.90;;;;;;4841901;29;19924;-70
2023/01/01 05:00:34;;;;;;;;;;;10.50;99.90;;;;;;4809343;29;20381;-70
2023/01/01 05:03:00;;;;;;;;;;;10.40;99.90;;;;;;4821377;29;19929;-70
2023/01/01 05:05:25;;;;;;;;;;;10.40;99.90;;;;;;4808501;29;19979;-70
2023/01/01 05:07:51;;;;;;;;;;;10.40;99.90;;;;;;4822469;29;19975;-70
2023/01/01 05:10:16;;;;;;;;;;;10.40;99.90;;;;;;4836936;29;19928;-70
2023/01/01 05:12:42;;;;;;;;;;;10.40;99.90;;;;;;4835250;29;19963;-70
2023/01/01 05:15:08;;;;;;;;;;;10.40;99.90;;;;;;4821247;29;19925;-71
2023/01/01 05:17:33;;;;;;;;;;;10.40;99.90;;;;;;4820583;29;20011;-70
2023/01/01 05:19:59;;;;;;;;;;;10.40;99.90;;;;;;4805310;29;20433;-70
2023/01/01 05:22:24;;;;;;;;;;;10.40;99.90;;;;;;4820512;29;19928;-70
2023/01/01 05:24:50;;;;;;;;;;;10.40;99.90;;;;;;4835877;29;19924;-70
2023/01/01 05:27:16;;;;;;;;;;;10.40;99.90;;;;;;4807353;29;19932;-70
2023/01/01 05:29:41;;;;;;;;;;;10.40;99.90;;;;;;4834048;29;19972;-70
2023/01/01 05:32:07;;;;;;;;;;;10.40;99.90;;;;;;4834435;29;19929;-70
2023/01/01 05:34:32;;;;;;;;;;;10.40;99.90;;;;;;4823357;29;19955;-70
2023/01/01 05:36:58;;;;;;;;;;;10.40;99.90;;;;;;4836898;29;19939;-70
2023/01/01 05:39:23;;;;;;;;;;;10.50;99.90;;;;;;4836336;29;19935;-71
2023/01/01 05:41:50;;;;;;;;;;;10.40;99.90;;;;;;4821884;29;20488;-70
2023/01/01 05:44:18;;;;;;;;;;;10.40;99.90;;;;;;4833593;29;20366;-71
2023/01/01 05:46:44;;;;;;;;;;;10.40;99.90;;;;;;4822176;29;19925;-71
2023/01/01 05:49:11;;;;;;;;;;;10.30;99.90;;;;;;4846996;29;19932;-70
2023/01/01 05:51:37;;;;;;;;;;;10.30;99.90;;;;;;4821627;29;19935;-70
2023/01/01 05:54:02;;;;;;;;;;;10.20;99.90;;;;;;4833569;29;19924;-71
2023/01/01 05:56:28;;;;;;;;;;;10.20;99.90;;;;;;4828036;29;20263;-71
2023/01/01 05:58:54;;;;;;;;;;;10.10;99.90;;;;;;4833613;29;19925;-70
2023/01/01 06:01:19;;;;;;;;;;;10.10;99.90;;;;;;4820785;29;19948;-70
2023/01/01 06:03:47;;;;;;;;;;;10.00;99.90;;;;;;4819743;29;19935;-71
2023/01/01 06:06:14;;;;;;;;;;;10.00;99.90;;;;;;4820748;29;20246;-71
2023/01/01 06:08:40;;;;;;;;;;;10.00;99.90;;;;;;4813561;29;20314;-71
2023/01/01 06:11:07;;;;;;;;;;;10.00;99.90;;;;;;4837255;29;19924;-71
2023/01/01 06:13:33;;;;;;;;;;;10.00;99.90;;;;;;4820023;29;20011;-70
2023/01/01 06:16:00;;;;;;;;;;;10.00;99.90;;;;;;4836438;29;20031;-70
2023/01/01 06:18:28;;;;;;;;;;;10.00;99.90;;;;;;4833600;29;19941;-70
2023/01/01 06:20:53;;;;;;;;;;;10.00;99.90;;;;;;4835153;29;20077;-70
2023/01/01 06:23:19;;;;;;;;;;;10.00;99.90;;;;;;4820709;29;20437;-70
2023/01/01 06:25:45;;;;;;;;;;;10.00;99.90;;;;;;4835225;29;19952;-70
2023/01/01 06:28:10;;;;;;;;;;;10.00;99.90;;;;;;4834194;29;19943;-70
2023/01/01 06:30:36;;;;;;;;;;;10.00;99.90;;;;;;4836308;29;19952;-71
2023/01/01 06:33:02;;;;;;;;;;;10.00;99.90;;;;;;4830020;29;19985;-71
2023/01/01 06:35:28;;;;;;;;;;;10.00;99.90;;;;;;4833443;29;19924;-71
2023/01/01 06:37:54;;;;;;;;;;;10.00;99.90;;;;;;4830206;29;20282;-70
2023/01/01 06:40:20;;;;;;;;;;;10.00;99.90;;;;;;4805208;29;19936;-70
2023/01/01 06:42:45;;;;;;;;;;;10.00;99.90;;;;;;4836885;29;20458;-70
2023/01/01 06:45:12;;;;;;;;;;;10.00;99.90;;;;;;4833144;29;19988;-70
2023/01/01 06:47:37;;;;;;;;;;;10.00;99.90;;;;;;4820714;29;20148;-70
2023/01/01 06:50:03;;;;;;;;;;;10.00;99.90;;;;;;4838843;29;20037;-70
2023/01/01 06:52:29;;;;;;;;;;;10.00;99.90;;;;;;4821677;29;19929;-70
2023/01/01 06:54:55;;;;;;;;;;;10.10;99.90;;;;;;4825375;29;20061;-70
2023/01/01 06:57:20;;;;;;;;;;;10.10;99.90;;;;;;4832665;29;20425;-70
2023/01/01 06:59:46;;;;;;;;;;;10.00;99.90;;;;;;4834192;29;19929;-70
2023/01/01 07:02:11;;;;;;;;;;;10.00;99.90;;;;;;4824686;29;19925;-71
2023/01/01 07:04:37;;;;;;;;;;;10.00;99.90;;;;;;4842690;29;19928;-70
2023/01/01 07:07:03;;;;;;;;;;;10.00;99.90;;;;;;4841420;29;19959;-70
2023/01/01 07:09:29;;;;;;;;;;;10.00;99.90;;;;;;4847938;29;19973;-70
2023/01/01 07:11:54;;;;;;;;;;;9.90;99.90;;;;;;4839351;29;19988;-70
2023/01/01 07:14:20;;;;;;;;;;;9.90;99.90;;;;;;4845822;29;19934;-70
2023/01/01 07:16:45;;;;;;;;;;;9.90;99.90;;;;;;4840337;29;19960;-70
2023/01/01 07:19:11;;;;;;;;;;;9.90;99.90;;;;;;4843665;29;19977;-70
2023/01/01 07:21:42;;;;;;;;;;;9.90;99.90;;;;;;4856738;29;19924;-70
2023/01/01 07:24:09;;;;;;;;;;;9.90;99.90;;;;;;4835214;29;19932;-70
2023/01/01 07:26:35;;;;;;;;;;;9.80;99.90;;;;;;4837322;29;19928;-70
2023/01/01 07:29:01;;;;;;;;;;;9.80;99.90;;;;;;4840589;29;19954;-70
2023/01/01 07:31:26;;;;;;;;;;;9.80;99.90;;;;;;4826647;29;19924;-70
2023/01/01 07:33:52;;;;;;;;;;;9.80;99.90;;;;;;4843470;29;19928;-70
2023/01/01 07:36:17;;;;;;;;;;;9.80;99.90;;;;;;4826840;29;20393;-70
2023/01/01 07:38:43;;;;;;;;;;;9.80;99.90;;;;;;4840992;29;20617;-70
2023/01/01 07:41:09;;;;;;;;;;;9.80;99.90;;;;;;4841683;29;19932;-70
2023/01/01 07:43:35;;;;;;;;;;;9.80;99.90;;;;;;4840496;29;19924;-70
2023/01/01 07:46:01;;;;;;;;;;;9.70;99.90;;;;;;4826653;29;19943;-70
2023/01/01 07:48:27;;;;;;;;;;;9.70;99.90;;;;;;4844883;29;20384;-70
2023/01/01 07:50:52;;;;;;;;;;;9.70;99.90;;;;;;4843736;29;19928;-70
2023/01/01 07:53:18;;;;;;;;;;;9.70;99.90;;;;;;4829083;29;19924;-70
2023/01/01 07:55:44;;;;;;;;;;;9.70;99.90;;;;;;4856247;29;19994;-70
2023/01/01 07:58:10;;;;;;;;;;;9.70;99.90;;;;;;4828425;29;19928;-70
2023/01/01 08:00:36;;;;;;;;;;;9.70;99.90;;;;;;4827749;29;19931;-71
2023/01/01 08:03:01;;;;;;;;;;;9.70;99.90;;;;;;4746530;29;1850278;-70
2023/01/01 08:05:27;;;;;;;;;;;9.80;99.90;;;;;;4837042;29;19972;-70
2023/01/01 08:07:53;;;;;;;;;;;9.80;99.90;;;;;;4820892;29;19932;-70
2023/01/01 08:10:19;;;;;;;;;;;9.80;99.90;;;;;;4833934;29;19924;-70
2023/01/01 08:12:44;;;;;;;;;;;9.80;99.90;;;;;;4837606;29;20378;-70
2023/01/01 08:15:11;;;;;;;;;;;9.80;99.90;;;;;;4808577;29;20043;-70
2023/01/01 08:17:37;;;;;;;;;;;9.80;99.90;;;;;;4820530;29;19936;-70
2023/01/01 08:20:03;;;;;;;;;;;9.80;99.90;;;;;;4835341;29;19932;-70
2023/01/01 08:22:28;;;;;;;;;;;9.80;99.90;;;;;;4818501;29;20393;-71
2023/01/01 08:24:54;;;;;;;;;;;9.80;99.90;;;;;;4834395;29;19929;-70
2023/01/01 08:27:19;;;;;;;;;;;9.80;99.90;;;;;;4829876;29;19937;-70
2023/01/01 08:29:45;;;;;;;;;;;9.80;99.90;;;;;;4806494;29;19929;-70
2023/01/01 08:32:11;;;;;;;;;;;9.80;99.90;;;;;;4823821;29;19980;-70
2023/01/01 08:34:37;;;;;;;;;;;9.80;99.90;;;;;;4839212;29;19928;-70
2023/01/01 08:37:03;;;;;;;;;;;9.80;99.90;;;;;;4815506;29;19997;-70
2023/01/01 08:39:28;;;;;;;;;;;9.80;99.90;;;;;;4836834;29;19953;-70
2023/01/01 08:41:54;;;;;;;;;;;9.80;99.90;;;;;;4833443;29;19929;-71
2023/01/01 08:44:19;;;;;;;;;;;9.80;99.90;;;;;;4834553;29;20289;-70
2023/01/01 08:46:45;;;;;;;;;;;9.80;99.90;;;;;;4836296;29;19932;-70
2023/01/01 08:49:11;;;;;;;;;;;9.80;99.90;;;;;;4836233;29;19932;-71
2023/01/01 08:51:36;;;;;;;;;;;9.80;99.90;;;;;;4836186;29;19981;-70
2023/01/01 08:54:02;;;;;;;;;;;9.80;99.90;;;;;;4823272;29;19993;-70
2023/01/01 08:56:28;;;;;;;;;;;9.80;99.90;;;;;;4838762;29;20015;-70
2023/01/01 08:58:53;;;;;;;;;;;9.80;99.90;;;;;;4823064;29;20028;-70
2023/01/01 09:01:25;;;;;;;;;;;9.80;99.90;;;;;;4838373;29;19935;-70
2023/01/01 09:03:50;;;;;;;;;;;9.80;99.90;;;;;;4834756;29;19984;-70
2023/01/01 09:06:16;;;;;;;;;;;9.80;99.90;;;;;;4838894;29;19924;-70
2023/01/01 09:08:41;;;;;;;;;;;9.80;99.90;;;;;;4838127;29;20385;-70
2023/01/01 09:11:18;;;;;;;;;;;9.80;99.90;;;;;;4818423;29;20035;-70
2023/01/01 09:13:44;;;;;;;;;;;9.80;99.90;;;;;;4837179;29;19935;-70
2023/01/01 09:16:10;;;;;;;;;;;9.80;99.90;;;;;;4835551;29;19924;-70
2023/01/01 09:18:35;;;;;;;;;;;9.80;99.90;;;;;;4838327;29;20796;-70
2023/01/01 09:21:01;;;;;;;;;;;9.80;99.90;;;;;;4838374;29;19925;-70
2023/01/01 09:23:26;;;;;;;;;;;9.80;99.90;;;;;;4836749;29;19932;-70
2023/01/01 09:25:52;;;;;;;;;;;9.80;99.90;;;;;;4822510;29;19955;-70
2023/01/01 09:28:17;;;;;;;;;;;9.80;99.90;;;;;;4818209;29;19939;-70
2023/01/01 09:30:43;;;;;;;;;;;9.80;99.90;;;;;;4838510;29;19970;-70
2023/01/01 09:33:08;;;;;;;;;;;9.80;99.90;;;;;;4821429;29;19928;-70
2023/01/01 09:35:37;;;;;;;;;;;9.80;99.90;;;;;;4837092;29;19928;-71
2023/01/01 09:38:02;;;;;;;;;;;9.80;99.90;;;;;;4820585;29;19939;-70
2023/01/01 09:40:46;;;;;;;;;;;9.80;99.90;;;;;;4837298;29;19936;-71
2023/01/01 09:43:24;;;;;;;;;;;9.80;99.90;;;;;;4836911;29;20482;-70
2023/01/01 09:45:59;;;;;;;;;;;9.80;99.90;;;;;;4832511;29;20417;-70
2023/01/01 09:48:25;;;;;;;;;;;9.80;99.90;;;;;;4830605;29;19935;-70
2023/01/01 09:50:51;;;;;;;;;;;9.80;99.90;;;;;;4833596;29;19931;-71
2023/01/01 09:53:35;;;;;;;;;;;9.80;99.90;;;;;;4834817;29;19929;-71
2023/01/01 09:56:02;;;;;;;;;;;9.80;99.90;;;;;;4836860;29;19928;-71
2023/01/01 09:58:35;;;;;;;;;;;9.80;99.90;;;;;;4836261;29;20343;-72
2023/01/01 10:01:18;;;;;;;;;;;9.90;99.90;;;;;;4837131;29;19929;-71
2023/01/01 10:03:44;;;;;;;;;;;9.90;99.90;;;;;;4846375;29;20365;-72
2023/01/01 10:06:30;;;;;;;;;;;9.90;99.90;;;;;;4839995;29;19924;-71
2023/01/01 10:09:08;;;;;;;;;;;10.00;99.90;;;;;;4840040;29;20429;-72
2023/01/01 10:11:53;;;;;;;;;;;10.10;99.90;;;;;;4837496;29;19931;-71
2023/01/01 10:14:37;;;;;;;;;;;10.10;99.90;;;;;;4840565;29;19932;-71
2023/01/01 10:17:29;;;;;;;;;;;10.10;99.90;;;;;;4825260;29;20257;-71
2023/01/01 10:20:04;;;;;;;;;;;10.10;99.90;;;;;;4834245;29;20384;-72
2023/01/01 10:22:34;;;;;;;;;;;10.10;99.90;;;;;;4856939;29;20287;-71
2023/01/01 10:25:00;;;;;;;;;;;10.10;99.90;;;;;;4837891;29;19932;-71
2023/01/01 10:27:43;;;;;;;;;;;10.10;99.90;;;;;;4854350;29;19932;-71
2023/01/01 10:30:16;;;;;;;;;;;10.00;99.90;;;;;;4852340;29;19936;-71
2023/01/01 10:32:43;;;;;;;;;;;10.00;99.90;;;;;;4835828;29;19964;-71
2023/01/01 10:35:11;;;;;;;;;;;10.00;99.90;;;;;;4839887;29;20376;-71
2023/01/01 10:37:37;;;;;;;;;;;9.90;99.90;;;;;;4839491;29;19935;-71
2023/01/01 10:40:05;;;;;;;;;;;9.90;99.90;;;;;;4839983;29;20590;-71
2023/01/01 10:42:31;;;;;;;;;;;9.80;99.90;;;;;;4793260;29;20400;-71
2023/01/01 10:44:58;;;;;;;;;;;9.80;99.90;;;;;;4839267;29;19924;-71
2023/01/01 10:47:25;;;;;;;;;;;9.80;99.90;;;;;;4840133;29;19936;-71
2023/01/01 10:49:55;;;;;;;;;;;9.80;99.90;;;;;;4837308;29;20737;-71
2023/01/01 10:52:24;;;;;;;;;;;9.90;99.90;;;;;;4843382;29;19924;-71
2023/01/01 10:54:49;;;;;;;;;;;9.80;99.90;;;;;;4839275;29;19931;-71
2023/01/01 10:57:36;;;;;;;;;;;9.90;99.90;;;;;;4842265;29;19930;-71
2023/01/01 11:00:09;;;;;;;;;;;9.90;99.90;;;;;;4838556;29;19975;-71
2023/01/01 11:02:36;;;;;;;;;;;9.90;99.90;;;;;;4853263;29;19934;-71
2023/01/01 11:05:12;;;;;;;;;;;10.00;99.90;;;;;;4835610;29;19970;-71
2023/01/01 11:07:39;;;;;;;;;;;9.90;99.90;;;;;;4849148;29;19932;-71
2023/01/01 11:10:08;;;;;;;;;;;9.90;99.90;;;;;;4843660;29;19924;-71
2023/01/01 11:12:34;;;;;;;;;;;10.00;99.90;;;;;;4837719;29;19935;-71
2023/01/01 11:15:00;;;;;;;;;;;10.00;99.90;;;;;;4840008;29;19924;-71
2023/01/01 11:17:30;;;;;;;;;;;10.00;99.90;;;;;;4809993;29;19928;-71
2023/01/01 11:19:59;;;;;;;;;;;10.00;99.90;;;;;;4838944;29;20018;-71
2023/01/01 11:22:41;;;;;;;;;;;10.10;99.90;;;;;;4823532;29;19928;-71
2023/01/01 11:25:26;;;;;;;;;;;10.00;99.90;;;;;;4824503;29;19928;-71
2023/01/01 11:27:52;;;;;;;;;;;10.10;99.90;;;;;;4840189;29;20062;-71
2023/01/01 11:30:18;;;;;;;;;;;10.10;99.90;;;;;;4858982;29;19956;-71
2023/01/01 11:32:43;;;;;;;;;;;10.10;99.90;;;;;;4850502;29;20288;-71
2023/01/01 11:35:16;;;;;;;;;;;10.10;99.90;;;;;;4837752;29;20023;-71
2023/01/01 11:37:43;;;;;;;;;;;10.10;99.90;;;;;;4843630;29;20432;-71
2023/01/01 11:40:16;;;;;;;;;;;10.10;99.90;;;;;;4842532;29;20698;-71
2023/01/01 11:42:46;;;;;;;;;;;10.20;99.90;;;;;;4843329;29;19924;-71
2023/01/01 11:45:17;;;;;;;;;;;10.20;99.90;;;;;;4846534;29;19925;-71
2023/01/01 11:47:44;;;;;;;;;;;10.30;99.90;;;;;;4842766;29;19954;-71
2023/01/01 11:50:10;;;;;;;;;;;10.30;99.90;;;;;;4842459;29;19932;-71
2023/01/01 11:52:40;;;;;;;;;;;10.40;99.90;;;;;;4839354;29;20415;-71
2023/01/01 11:55:12;;;;;;;;;;;10.40;99.90;;;;;;4828309;29;19924;-71
2023/01/01 11:57:40;;;;;;;;;;;10.50;99.90;;;;;;4841194;29;19978;-71
2023/01/01 12:00:11;;;;;;;;;;;10.50;99.90;;;;;;4829247;29;19924;-72
2023/01/01 12:02:39;;;;;;;;;;;10.50;99.90;;;;;;4844302;29;19924;-72
2023/01/01 12:05:08;;;;;;;;;;;10.50;99.90;;;;;;4845343;29;19924;-72
2023/01/01 12:07:35;;;;;;;;;;;10.50;99.90;;;;;;4843785;29;20015;-72
2023/01/01 12:10:03;;;;;;;;;;;10.50;99.90;;;;;;4838433;29;19932;-72
2023/01/01 12:12:47;;;;;;;;;;;10.40;99.90;;;;;;4836052;29;19963;-72
2023/01/01 12:15:34;;;;;;;;;;;10.40;99.90;;;;;;4848063;29;19976;-72
2023/01/01 12:18:11;;;;;;;;;;;10.30;99.90;;;;;;4845021;29;19924;-72
2023/01/01 12:20:41;;;;;;;;;;;10.30;99.90;;;;;;4844899;29;19983;-72
2023/01/01 12:23:08;;;;;;;;;;;10.20;99.90;;;;;;4863924;29;19932;-72
2023/01/01 12:25:45;;;;;;;;;;;10.20;99.90;;;;;;4847887;29;19999;-72
2023/01/01 12:28:29;;;;;;;;;;;10.30;99.90;;;;;;4838437;29;19936;-73
2023/01/01 12:31:14;;;;;;;;;;;10.30;99.90;;;;;;4855632;29;20388;-72
2023/01/01 12:33:45;;;;;;;;;;;10.40;99.90;;;;;;4838775;29;20305;-73
2023/01/01 12:36:26;;;;;;;;;;;10.50;99.90;;;;;;4842143;29;20304;-72
2023/01/01 12:39:10;;;;;;;;;;;10.50;99.90;;;;;;4850841;29;19936;-72
2023/01/01 12:41:55;;;;;;;;;;;10.50;99.90;;;;;;4834606;29;19984;-72
2023/01/01 12:44:39;;;;;;;;;;;10.60;99.90;;;;;;4833886;29;20355;-72
2023/01/01 12:47:05;;;;;;;;;;;10.60;99.90;;;;;;4838574;29;20393;-72
2023/01/01 12:49:54;;;;;;;;;;;10.70;99.90;;;;;;4840126;29;19924;-71
2023/01/01 12:52:49;;;;;;;;;;;10.70;99.90;;;;;;4853337;29;20333;-72
2023/01/01 12:55:33;;;;;;;;;;;10.70;99.90;;;;;;4825470;29;19979;-73
2023/01/01 12:58:03;;;;;;;;;;;10.70;99.90;;;;;;4835099;29;20356;-71
2023/01/01 13:00:30;;;;;;;;;;;10.70;99.90;;;;;;4839023;29;19939;-72
2023/01/01 13:03:02;;;;;;;;;;;10.70;99.90;;;;;;4854901;29;19939;-73
2023/01/01 13:05:28;;;;;;;;;;;10.80;99.90;;;;;;4857230;29;19933;-73
2023/01/01 13:07:56;;;;;;;;;;;10.80;99.90;;;;;;4833290;29;19995;-72
2023/01/01 13:10:28;;;;;;;;;;;10.80;99.90;;;;;;4853533;29;19928;-73
2023/01/01 13:12:55;;;;;;;;;;;10.80;99.90;;;;;;4847670;29;20833;-73
2023/01/01 13:15:35;;;;;;;;;;;10.80;99.90;;;;;;4835813;29;19935;-73
2023/01/01 13:18:06;;;;;;;;;;;10.80;99.90;;;;;;4858829;29;19931;-72
2023/01/01 13:20:34;;;;;;;;;;;10.80;99.90;;;;;;4838845;29;19924;-73
2023/01/01 13:23:00;;;;;;;;;;;10.70;99.90;;;;;;4846936;29;20529;-72
2023/01/01 13:25:26;;;;;;;;;;;10.70;99.90;;;;;;4834982;29;19935;-73
2023/01/01 13:28:03;;;;;;;;;;;10.70;99.90;;;;;;4841383;29;19932;-73
2023/01/01 13:30:40;;;;;;;;;;;10.70;99.90;;;;;;4846446;29;20613;-73
2023/01/01 13:33:22;;;;;;;;;;;10.60;99.90;;;;;;4836890;29;20026;-73
2023/01/01 13:36:11;;;;;;;;;;;10.60;99.90;;;;;;4841042;29;19932;-72
2023/01/01 13:38:54;;;;;;;;;;;10.60;99.90;;;;;;4831655;29;19928;-73
2023/01/01 13:41:28;;;;;;;;;;;10.60;99.90;;;;;;4840729;29;19924;-73
2023/01/01 13:44:00;;;;;;;;;;;10.50;99.90;;;;;;4838899;29;19928;-72
2023/01/01 13:46:50;;;;;;;;;;;10.50;99.90;;;;;;4837421;29;19923;-72
2023/01/01 13:49:16;;;;;;;;;;;10.50;99.90;;;;;;4810214;29;20007;-72
2023/01/01 13:51:50;;;;;;;;;;;10.50;99.90;;;;;;4836954;29;20022;-72
2023/01/01 13:54:34;;;;;;;;;;;10.50;99.90;;;;;;4844357;29;19924;-72
2023/01/01 13:57:02;;;;;;;;;;;10.50;99.90;;;;;;4843465;29;20007;-73
2023/01/01 13:59:46;;;;;;;;;;;10.40;99.90;;;;;;4817061;29;19925;-73
2023/01/01 14:02:19;;;;;;;;;;;10.40;99.90;;;;;;4842102;29;19928;-73
2023/01/01 14:04:47;;;;;;;;;;;10.40;99.90;;;;;;4830313;29;19928;-72
2023/01/01 14:07:23;;;;;;;;;;;10.30;99.90;;;;;;4839020;29;19932;-72
2023/01/01 14:09:49;;;;;;;;;;;10.30;99.90;;;;;;4839196;29;19927;-73
2023/01/01 14:12:18;;;;;;;;;;;10.20;99.90;;;;;;4845425;29;20400;-73
2023/01/01 14:14:44;;;;;;;;;;;10.10;99.90;;;;;;4826021;29;20377;-72
2023/01/01 14:17:12;;;;;;;;;;;10.00;99.90;;;;;;4825315;29;19924;-72
2023/01/01 14:19:39;;;;;;;;;;;10.00;99.90;;;;;;4839805;29;19932;-70
2023/01/01 14:22:06;;;;;;;;;;;9.90;99.90;;;;;;4838286;29;19976;-70
2023/01/01 14:24:32;;;;;;;;;;;9.80;99.90;;;;;;4839269;29;20728;-70
2023/01/01 14:26:58;;;;;;;;;;;9.80;99.90;;;;;;4837016;29;19928;-71
2023/01/01 14:29:31;;;;;;;;;;;9.70;99.90;;;;;;4839714;29;19936;-72
2023/01/01 14:31:57;;;;;;;;;;;9.70;99.90;;;;;;4853616;29;19928;-72
2023/01/01 14:34:27;;;;;;;;;;;9.70;99.90;;;;;;4828926;29;19925;-72
2023/01/01 14:36:54;;;;;;;;;;;9.60;99.90;;;;;;4826704;29;19928;-72
2023/01/01 14:39:46;;;;;;;;;;;9.60;99.90;;;;;;4836721;29;20380;-72
2023/01/01 14:42:14;;;;;;;;;;;9.50;99.90;;;;;;4827159;29;20023;-72
2023/01/01 14:44:43;;;;;;;;;;;9.40;99.90;;;;;;4831658;29;20284;-72
2023/01/01 14:47:19;;;;;;;;;;;9.40;99.90;;;;;;4838112;29;19980;-72
2023/01/01 14:49:44;;;;;;;;;;;9.40;99.90;;;;;;4835203;29;20308;-72
2023/01/01 14:52:36;;;;;;;;;;;9.30;99.90;;;;;;4833498;29;19950;-72
2023/01/01 14:55:03;;;;;;;;;;;9.40;99.90;;;;;;4836414;29;19928;-72
2023/01/01 14:57:30;;;;;;;;;;;9.30;99.90;;;;;;4839938;29;20040;-72
2023/01/01 14:59:55;;;;;;;;;;;9.30;99.90;;;;;;4822627;29;19928;-72
2023/01/01 15:02:25;;;;;;;;;;;9.20;99.90;;;;;;4856490;29;19991;-72
2023/01/01 15:04:50;;;;;;;;;;;9.20;99.90;;;;;;4830308;29;19928;-72
2023/01/01 15:07:31;;;;;;;;;;;9.10;99.90;;;;;;4839122;29;19931;-72
2023/01/01 15:10:01;;;;;;;;;;;9.10;99.90;;;;;;4841836;29;20019;-72
2023/01/01 15:12:27;;;;;;;;;;;9.00;99.90;;;;;;4829321;29;20300;-72
2023/01/01 15:14:53;;;;;;;;;;;9.00;99.90;;;;;;4849849;29;20027;-72
2023/01/01 15:17:20;;;;;;;;;;;8.90;99.90;;;;;;4840371;29;20386;-72
2023/01/01 15:19:58;;;;;;;;;;;8.90;99.90;;;;;;4844075;29;19931;-72
2023/01/01 15:22:24;;;;;;;;;;;8.90;99.90;;;;;;4848345;29;19951;-72
2023/01/01 15:24:50;;;;;;;;;;;8.90;99.90;;;;;;4843607;29;19924;-72
2023/01/01 15:27:20;;;;;;;;;;;8.80;99.90;;;;;;4827042;29;19924;-73
2023/01/01 15:29:49;;;;;;;;;;;8.80;99.90;;;;;;4860330;29;20067;-72
2023/01/01 15:32:22;;;;;;;;;;;8.80;99.90;;;;;;4849030;29;19931;-72
2023/01/01 15:34:49;;;;;;;;;;;8.80;99.90;;;;;;4840570;29;20012;-72
2023/01/01 15:37:26;;;;;;;;;;;8.80;99.90;;;;;;4842089;29;19932;-72